PDT,Max TemperatureF,Mean TemperatureF,Min TemperatureF,Max Dew PointF,MeanDew PointF,Min DewpointF,Max Humidity, Mean Humidity, Min Humidity, Max Sea Level PressureIn, Mean Sea Level PressureIn, Min Sea Level PressureIn, Max VisibilityMiles, Mean VisibilityMiles, Min VisibilityMiles, Max Wind SpeedMPH, Mean Wind SpeedMPH, Max Gust SpeedMPH,PrecipitationIn, CloudCover, Events, WindDirDegrees
2012-9-1,78,60,41,57,47,27,100,59,18,30.19,30.00,29.83,10,10,2,23,9,30,0.26,3,Rain-Thunderstorm,221
2012-9-2,80,58,36,38,29,22,76,44,11,30.25,30.02,29.93,10,10,10,16,8,20,0.00,0,,185
2012-9-3,83,61,39,31,22,9,55,31,6,30.08,30.00,29.95,10,10,10,20,9,26,0.00,0,,181
2012-9-4,85,63,41,28,24,19,49,30,10,30.23,30.01,29.93,10,10,10,15,6,22,0.00,0,,183
2012-9-5,86,64,42,42,32,23,57,35,12,30.05,29.95,29.85,10,10,10,17,8,24,0.00,1,,191
2012-9-6,82,66,50,60,50,42,96,63,30,30.20,29.98,29.83,10,9,2,21,6,31,0.26,4,Rain-Thunderstorm,198
2012-9-7,81,63,45,51,44,39,100,63,25,30.15,30.08,29.99,10,10,10,17,7,22,0.00,2,,111
2012-9-8,83,63,42,42,37,31,89,55,20,30.21,30.08,29.98,10,10,10,17,7,20,0.00,1,,158
2012-9-9,85,67,49,51,43,30,53,38,22,30.26,30.02,29.86,10,10,10,23,9,30,T,3,Rain-Thunderstorm,232
2012-9-10,82,67,52,53,49,46,89,61,33,30.20,29.95,29.77,10,10,4,23,10,30,0.10,2,Rain-Thunderstorm,205
2012-9-11,72,61,50,54,50,43,100,74,47,30.22,30.01,29.84,10,10,5,29,8,33,0.25,3,Rain-Thunderstorm,190
2012-9-12,76,57,38,48,37,21,100,57,13,30.32,30.14,30.03,10,10,10,18,7,22,0.00,0,,352
2012-9-13,79,56,33,34,32,31,89,84,79,30.52,30.42,30.26,10,10,10,14,8,17,0.00,0,,154
2012-9-14,81,59,36,34,27,19,56,34,11,30.47,30.41,30.33,10,9,0,14,8,16,0.00,0,Fog,179
2012-9-15,80,60,40,35,29,22,70,41,12,30.38,30.12,30.04,10,10,10,17,8,23,0.00,0,,180
2012-9-16,81,61,40,34,29,22,70,41,12,30.16,30.02,29.96,10,10,10,14,7,21,0.00,1,,188
2012-9-17,77,59,41,35,28,14,70,40,10,30.27,30.06,29.98,10,10,10,17,7,23,0.00,1,,143
2012-9-18,81,59,36,32,25,18,70,40,9,30.22,30.10,30.02,10,10,10,14,7,16,0.00,0,,175
2012-9-19,82,60,38,28,25,21,64,38,11,30.32,30.10,30.01,10,10,10,16,8,22,0.00,0,,180
2012-9-20,82,60,37,32,25,20,64,38,11,30.34,30.08,29.99,10,10,9,15,7,25,0.00,0,,170
2012-9-21,82,60,38,31,27,24,64,39,13,30.15,30.02,29.95,10,10,10,18,8,21,0.00,0,,176
2012-9-22,81,63,44,35,31,27,53,35,16,30.09,29.98,29.94,10,10,10,21,9,29,0.00,3,,178
2012-9-23,79,65,51,40,34,26,51,34,17,30.12,29.92,29.84,10,10,10,32,12,41,T,3,Rain,180
2012-9-24,59,47,35,50,44,38,100,76,51,30.23,30.04,29.90,10,9,3,26,10,33,0.34,6,Rain-Thunderstorm,160
2012-9-25,66,51,35,46,41,35,100,69,37,30.15,30.02,29.92,10,10,10,13,7,21,0.00,2,,25
2012-9-26,71,55,38,44,40,37,100,67,33,30.04,30.00,29.93,10,10,10,15,8,20,0.00,0,,156
2012-9-27,75,56,37,42,37,29,100,60,19,30.26,30.07,29.97,10,10,10,14,7,,0.00,0,,168
2012-9-28,76,58,39,38,34,27,85,51,17,30.23,30.05,29.95,10,10,10,32,7,39,T,2,Rain-Thunderstorm,178
2012-9-29,78,58,38,41,33,28,79,48,16,30.26,30.09,30.02,10,10,10,23,9,22,T,1,Rain,181
2012-9-30,80,59,37,35,29,25,76,46,15,30.26,30.16,30.10,10,10,10,18,10,23,0.00,0,,151